Time;durP1;ratioP1;P1;durP2;ratioP2;P2;SDS_P1;SDS_P2;PMS_P1;PMS_P2;Temp;Humidity;BMP_temperature;BMP_pressure;BME280_temperature;BME280_humidity;BME280_pressure;Samples;Min_cycle;Max_cycle;Signal;HPM_P1;HPM_P2
2023/04/25 00:03:24;;;;;;;;;;;6.80;99.90;;;;;;8388048;28;20440;-75
2023/04/25 00:07:27;;;;;;;;;;;6.80;99.90;;;;;;8388531;28;19932;-75
2023/04/25 00:11:30;;;;;;;;;;;6.70;99.90;;;;;;8390906;28;20400;-75
2023/04/25 00:15:31;;;;;;;;;;;6.70;99.90;;;;;;8391629;28;19932;-75
2023/04/25 00:19:34;;;;;;;;;;;6.70;99.90;;;;;;8392440;28;19925;-75
2023/04/25 00:23:36;;;;;;;;;;;6.80;99.90;;;;;;8403650;28;19928;-75
2023/04/25 00:27:38;;;;;;;;;;;6.80;99.90;;;;;;8387162;28;19933;-75
2023/04/25 00:31:40;;;;;;;;;;;6.80;99.90;;;;;;8387599;28;19952;-75
2023/04/25 00:35:42;;;;;;;;;;;6.80;99.90;;;;;;8416804;28;20377;-75
2023/04/25 00:39:44;;;;;;;;;;;6.80;99.90;;;;;;8397317;28;19932;-75
2023/04/25 00:43:45;;;;;;;;;;;6.80;99.90;;;;;;8400632;28;19939;-75
2023/04/25 00:47:47;;;;;;;;;;;6.80;99.90;;;;;;8386058;28;20384;-75
2023/04/25 00:51:49;;;;;;;;;;;6.80;99.90;;;;;;8367038;28;20050;-75
2023/04/25 00:55:51;;;;;;;;;;;6.80;99.90;;;;;;8386784;28;20338;-75
2023/04/25 00:59:54;;;;;;;;;;;6.70;99.90;;;;;;8390819;28;19975;-75
2023/04/25 01:03:55;;;;;;;;;;;6.70;99.90;;;;;;8376872;28;19925;-75
2023/04/25 01:07:58;;;;;;;;;;;6.70;99.90;;;;;;8383559;28;19925;-75
2023/04/25 01:12:00;;;;;;;;;;;6.60;99.90;;;;;;8389007;28;19925;-75
2023/04/25 01:16:03;;;;;;;;;;;6.50;99.90;;;;;;8419338;28;19951;-75
2023/04/25 01:20:05;;;;;;;;;;;6.50;99.90;;;;;;8392154;28;20023;-75
2023/04/25 01:24:06;;;;;;;;;;;6.40;99.90;;;;;;8385386;28;19931;-75
2023/04/25 01:28:08;;;;;;;;;;;6.30;99.90;;;;;;8385557;28;19929;-75
2023/04/25 01:32:10;;;;;;;;;;;6.20;99.90;;;;;;8387157;28;19930;-75
2023/04/25 01:36:12;;;;;;;;;;;6.20;99.90;;;;;;8401419;28;20339;-75
2023/04/25 01:40:14;;;;;;;;;;;6.10;99.90;;;;;;8403941;28;19924;-75
2023/04/25 01:44:16;;;;;;;;;;;6.00;99.90;;;;;;8397800;28;20315;-75
2023/04/25 01:48:18;;;;;;;;;;;5.90;99.90;;;;;;8394396;28;19925;-75
2023/04/25 01:52:19;;;;;;;;;;;5.80;99.90;;;;;;8397407;28;20038;-75
2023/04/25 01:56:21;;;;;;;;;;;5.70;99.90;;;;;;8386774;28;19925;-75
2023/04/25 02:00:23;;;;;;;;;;;5.60;99.90;;;;;;8394921;28;19933;-75
2023/04/25 02:04:24;;;;;;;;;;;5.50;99.90;;;;;;8386405;28;19928;-75
2023/04/25 02:08:26;;;;;;;;;;;5.40;99.90;;;;;;8393112;28;20019;-75
2023/04/25 02:12:28;;;;;;;;;;;5.40;99.90;;;;;;8386818;28;19929;-76
2023/04/25 02:16:30;;;;;;;;;;;5.30;99.90;;;;;;8393037;28;20384;-75
2023/04/25 02:20:32;;;;;;;;;;;5.30;99.90;;;;;;8398497;28;20327;-75
2023/04/25 02:24:34;;;;;;;;;;;5.20;99.90;;;;;;8393927;28;19931;-75
2023/04/25 02:28:36;;;;;;;;;;;5.10;99.90;;;;;;8388461;28;19925;-75
2023/04/25 02:32:38;;;;;;;;;;;5.10;99.90;;;;;;8381818;28;19998;-75
2023/04/25 02:36:40;;;;;;;;;;;5.00;99.90;;;;;;8390057;28;19934;-75
2023/04/25 02:40:42;;;;;;;;;;;5.00;99.90;;;;;;8400942;28;20375;-75
2023/04/25 02:44:44;;;;;;;;;;;5.00;99.90;;;;;;8400812;28;19931;-75
2023/04/25 02:48:45;;;;;;;;;;;5.00;99.90;;;;;;8391032;28;19974;-75
2023/04/25 02:52:47;;;;;;;;;;;4.90;99.90;;;;;;8393827;28;20376;-75
2023/04/25 02:56:49;;;;;;;;;;;4.90;99.90;;;;;;8435225;27;20341;-75
2023/04/25 03:00:50;;;;;;;;;;;4.90;99.90;;;;;;8393571;28;20069;-75
2023/04/25 03:04:52;;;;;;;;;;;4.90;99.90;;;;;;8388617;28;19930;-75
2023/04/25 03:08:54;;;;;;;;;;;4.90;99.90;;;;;;8379509;28;19929;-75
2023/04/25 03:12:55;;;;;;;;;;;4.90;99.90;;;;;;8426156;27;20368;-75
2023/04/25 03:16:57;;;;;;;;;;;4.90;99.90;;;;;;8373908;28;20407;-75
2023/04/25 03:20:58;;;;;;;;;;;5.00;99.90;;;;;;8380159;28;20404;-75
2023/04/25 03:25:00;;;;;;;;;;;5.00;99.90;;;;;;8394822;28;19928;-75
2023/04/25 03:29:02;;;;;;;;;;;5.00;99.90;;;;;;8399872;28;20363;-75
2023/04/25 03:33:03;;;;;;;;;;;5.10;99.90;;;;;;8393181;28;19974;-75
2023/04/25 03:37:05;;;;;;;;;;;5.20;99.90;;;;;;8394898;28;20283;-75
2023/04/25 03:41:07;;;;;;;;;;;5.20;99.90;;;;;;8387658;28;19946;-75
2023/04/25 03:45:09;;;;;;;;;;;5.20;99.90;;;;;;8389867;28;19943;-75
2023/04/25 03:49:10;;;;;;;;;;;5.20;99.90;;;;;;8387717;28;19954;-76
2023/04/25 03:53:12;;;;;;;;;;;5.30;99.90;;;;;;8386040;28;19932;-75
2023/04/25 03:57:14;;;;;;;;;;;5.40;99.90;;;;;;8382083;28;19939;-75
2023/04/25 04:01:16;;;;;;;;;;;5.50;99.90;;;;;;8379968;28;19936;-75
2023/04/25 04:05:17;;;;;;;;;;;5.60;99.90;;;;;;8403440;27;20015;-75
2023/04/25 04:09:20;;;;;;;;;;;5.70;99.90;;;;;;8387865;28;20410;-75
2023/04/25 04:13:21;;;;;;;;;;;5.70;99.90;;;;;;8389606;28;19932;-74
2023/04/25 04:17:23;;;;;;;;;;;5.70;99.90;;;;;;8386075;28;19928;-75
2023/04/25 04:21:26;;;;;;;;;;;5.80;99.90;;;;;;8394572;28;19924;-75
2023/04/25 04:25:28;;;;;;;;;;;5.80;99.90;;;;;;8408278;28;19969;-75
2023/04/25 04:29:30;;;;;;;;;;;5.80;99.90;;;;;;8420344;28;19924;-75
2023/04/25 04:33:31;;;;;;;;;;;5.80;99.90;;;;;;8398328;28;20283;-75
2023/04/25 04:37:33;;;;;;;;;;;5.80;99.90;;;;;;8390590;28;20383;-75
2023/04/25 04:41:35;;;;;;;;;;;5.80;99.90;;;;;;8402378;28;19975;-75
2023/04/25 04:45:38;;;;;;;;;;;5.80;99.90;;;;;;8390808;28;19928;-75
2023/04/25 04:49:39;;;;;;;;;;;5.80;99.90;;;;;;8384452;28;20030;-75
2023/04/25 04:53:41;;;;;;;;;;;5.80;99.90;;;;;;8396288;28;19971;-75
2023/04/25 04:57:43;;;;;;;;;;;5.80;99.90;;;;;;8385805;28;20027;-75
2023/04/25 05:01:46;;;;;;;;;;;5.80;99.90;;;;;;8387206;28;20421;-75
2023/04/25 05:05:48;;;;;;;;;;;5.90;99.90;;;;;;8388633;28;19933;-75
2023/04/25 05:09:50;;;;;;;;;;;5.90;99.90;;;;;;8390569;28;19939;-75
2023/04/25 05:13:52;;;;;;;;;;;6.00;99.90;;;;;;8387534;28;19938;-75
2023/04/25 05:17:54;;;;;;;;;;;6.00;99.90;;;;;;8384473;28;19935;-75
2023/04/25 05:21:55;;;;;;;;;;;6.10;99.90;;;;;;8392910;28;19947;-75
2023/04/25 05:25:57;;;;;;;;;;;6.10;99.90;;;;;;8410858;28;19975;-75
2023/04/25 05:29:59;;;;;;;;;;;6.20;99.90;;;;;;8392786;28;19967;-76
2023/04/25 05:34:00;;;;;;;;;;;6.20;99.90;;;;;;8388320;28;20277;-75
2023/04/25 05:38:02;;;;;;;;;;;6.30;99.90;;;;;;8387248;28;19924;-74
2023/04/25 05:42:04;;;;;;;;;;;6.40;99.90;;;;;;8390424;28;19925;-75
2023/04/25 05:46:05;;;;;;;;;;;6.50;99.90;;;;;;8398273;28;19928;-75
2023/04/25 05:50:08;;;;;;;;;;;6.60;99.90;;;;;;8380275;28;20021;-74
2023/04/25 05:54:10;;;;;;;;;;;6.60;99.90;;;;;;8385805;28;19939;-75
2023/04/25 05:58:11;;;;;;;;;;;6.70;99.90;;;;;;8382382;28;20101;-74
2023/04/25 06:02:13;;;;;;;;;;;6.80;99.90;;;;;;8408193;28;20380;-75
2023/04/25 06:06:15;;;;;;;;;;;6.90;99.90;;;;;;8382615;28;19925;-74
2023/04/25 06:10:16;;;;;;;;;;;7.00;99.90;;;;;;8405134;28;20015;-74
2023/04/25 06:14:18;;;;;;;;;;;7.00;99.90;;;;;;8399816;28;19939;-74
2023/04/25 06:18:20;;;;;;;;;;;7.10;99.90;;;;;;8402786;28;19933;-75
2023/04/25 06:22:21;;;;;;;;;;;7.20;99.90;;;;;;8381766;28;19971;-74
2023/04/25 06:26:23;;;;;;;;;;;7.30;99.90;;;;;;8397231;28;20058;-75
2023/04/25 06:30:25;;;;;;;;;;;7.30;99.90;;;;;;8389906;28;19939;-75
2023/04/25 06:34:27;;;;;;;;;;;7.40;99.90;;;;;;8397206;28;20292;-74
2023/04/25 06:38:28;;;;;;;;;;;7.50;99.90;;;;;;8396802;28;19983;-75
2023/04/25 06:42:30;;;;;;;;;;;7.50;99.90;;;;;;8397882;28;20357;-74
2023/04/25 06:46:32;;;;;;;;;;;7.60;99.90;;;;;;8392825;28;19924;-75
2023/04/25 06:50:33;;;;;;;;;;;7.70;99.90;;;;;;8398189;28;19928;-74
2023/04/25 06:54:35;;;;;;;;;;;7.90;99.90;;;;;;8375166;28;19936;-75
2023/04/25 06:58:37;;;;;;;;;;;8.10;99.90;;;;;;8387460;28;19931;-74
2023/04/25 07:02:38;;;;;;;;;;;8.30;99.90;;;;;;8390625;28;20047;-74
2023/04/25 07:06:42;;;;;;;;;;;8.40;99.90;;;;;;8381439;28;19940;-75
2023/04/25 07:10:45;;;;;;;;;;;8.50;99.90;;;;;;8390240;28;19939;-75
2023/04/25 07:14:49;;;;;;;;;;;8.60;99.90;;;;;;8391579;28;20297;-75
2023/04/25 07:18:51;;;;;;;;;;;8.80;99.90;;;;;;8389046;28;20020;-75
2023/04/25 07:22:53;;;;;;;;;;;8.90;99.90;;;;;;8398784;28;19924;-75
2023/04/25 07:26:54;;;;;;;;;;;9.20;99.90;;;;;;8399234;28;20237;-75
2023/04/25 07:30:57;;;;;;;;;;;9.30;99.90;;;;;;8385154;28;20242;-75
2023/04/25 07:34:59;;;;;;;;;;;9.60;99.90;;;;;;8390735;28;20368;-75
2023/04/25 07:39:01;;;;;;;;;;;9.90;99.90;;;;;;8394235;28;20019;-75
2023/04/25 07:43:02;;;;;;;;;;;10.00;99.90;;;;;;8389311;28;20380;-75
2023/04/25 07:47:06;;;;;;;;;;;10.00;99.90;;;;;;8405343;28;20382;-75
2023/04/25 07:51:08;;;;;;;;;;;9.80;99.90;;;;;;8392020;28;19924;-75
2023/04/25 07:55:10;;;;;;;;;;;9.50;99.90;;;;;;8394952;28;20309;-75
2023/04/25 07:59:11;;;;;;;;;;;9.30;99.90;;;;;;8403285;28;19937;-75
2023/04/25 08:03:13;;;;;;;;;;;9.10;99.90;;;;;;8384239;28;19938;-75
2023/04/25 08:07:15;;;;;;;;;;;9.10;99.90;;;;;;8382274;28;19959;-75
2023/04/25 08:11:16;;;;;;;;;;;9.10;99.90;;;;;;8382982;28;19930;-75
2023/04/25 08:15:18;;;;;;;;;;;9.20;99.90;;;;;;8386991;28;19990;-75
2023/04/25 08:19:20;;;;;;;;;;;9.20;99.90;;;;;;8390826;28;19952;-75
2023/04/25 08:23:21;;;;;;;;;;;9.40;99.90;;;;;;8380803;28;19935;-75
2023/04/25 08:27:23;;;;;;;;;;;9.60;99.90;;;;;;8374000;28;19966;-75
2023/04/25 08:31:25;;;;;;;;;;;9.70;99.90;;;;;;8398950;28;20299;-75
2023/04/25 08:35:26;;;;;;;;;;;9.90;99.90;;;;;;8393381;28;19989;-75
2023/04/25 08:39:28;;;;;;;;;;;10.20;99.90;;;;;;8382841;28;20348;-75
2023/04/25 08:43:33;;;;;;;;;;;10.30;99.90;;;;;;8391701;28;20268;-75
2023/04/25 08:47:36;;;;;;;;;;;10.40;99.90;;;;;;8390485;28;19924;-75
2023/04/25 08:51:46;;;;;;;;;;;10.30;99.90;;;;;;8389682;28;19931;-75
2023/04/25 08:55:48;;;;;;;;;;;10.10;99.90;;;;;;8391560;28;19947;-75
2023/04/25 08:59:51;;;;;;;;;;;10.00;99.90;;;;;;8407651;28;19928;-75
2023/04/25 09:03:52;;;;;;;;;;;9.90;99.90;;;;;;8402331;28;20049;-75
2023/04/25 09:07:56;;;;;;;;;;;9.70;99.90;;;;;;8391684;28;19925;-75
2023/04/25 09:11:59;;;;;;;;;;;9.60;99.90;;;;;;8423125;28;20379;-75
2023/04/25 09:16:01;;;;;;;;;;;9.50;99.90;;;;;;8407947;28;20295;-75
2023/04/25 09:20:07;;;;;;;;;;;9.50;99.90;;;;;;8397095;28;19929;-75
2023/04/25 09:24:09;;;;;;;;;;;9.90;99.90;;;;;;8387659;28;19933;-75
2023/04/25 09:28:11;;;;;;;;;;;10.30;99.90;;;;;;8382798;28;19925;-76
2023/04/25 09:32:14;;;;;;;;;;;10.60;99.90;;;;;;8373287;28;20021;-76
2023/04/25 09:36:16;;;;;;;;;;;11.00;99.90;;;;;;8375705;28;19931;-75
2023/04/25 09:40:18;;;;;;;;;;;11.20;99.90;;;;;;8392096;28;20358;-74
2023/04/25 09:44:23;;;;;;;;;;;11.50;99.90;;;;;;8398181;28;19978;-76
2023/04/25 09:48:25;;;;;;;;;;;11.70;99.90;;;;;;8380668;28;19928;-75
2023/04/25 09:52:27;;;;;;;;;;;11.70;99.90;;;;;;8385516;28;20396;-76
2023/04/25 09:56:32;;;;;;;;;;;11.70;99.90;;;;;;8380027;28;19924;-75
2023/04/25 10:00:35;;;;;;;;;;;11.70;99.90;;;;;;8392048;28;20427;-76
2023/04/25 10:04:37;;;;;;;;;;;11.50;99.90;;;;;;8390521;28;19956;-75
2023/04/25 10:08:40;;;;;;;;;;;11.20;99.90;;;;;;8387954;28;20411;-75
2023/04/25 10:12:43;;;;;;;;;;;11.10;99.90;;;;;;8395942;28;20391;-75
2023/04/25 10:16:45;;;;;;;;;;;11.10;99.90;;;;;;8398525;28;19925;-75
2023/04/25 10:20:46;;;;;;;;;;;11.10;99.90;;;;;;8381262;28;19931;-75
2023/04/25 10:24:49;;;;;;;;;;;11.20;99.90;;;;;;8400480;28;19974;-75
2023/04/25 10:29:01;;;;;;;;;;;11.10;99.90;;;;;;8385200;28;20267;-75
2023/04/25 10:33:15;;;;;;;;;;;11.10;99.90;;;;;;8392087;28;19924;-75
2023/04/25 10:37:18;;;;;;;;;;;11.20;99.90;;;;;;8393188;28;19978;-75
2023/04/25 10:41:21;;;;;;;;;;;11.30;99.90;;;;;;8375846;28;19925;-76
2023/04/25 10:45:23;;;;;;;;;;;11.40;99.90;;;;;;8375992;28;19924;-75
2023/04/25 10:49:43;;;;;;;;;;;11.40;99.90;;;;;;8371850;28;20012;-75
2023/04/25 10:53:56;;;;;;;;;;;11.60;99.90;;;;;;8390009;28;19946;-75
2023/04/25 10:57:58;;;;;;;;;;;11.80;99.90;;;;;;8398732;28;19929;-75
2023/04/25 11:02:10;;;;;;;;;;;12.00;99.90;;;;;;8391598;28;20019;-75
2023/04/25 11:06:22;;;;;;;;;;;12.00;99.90;;;;;;8388390;28;19936;-75
2023/04/25 11:10:27;;;;;;;;;;;12.10;99.90;;;;;;8399394;28;19924;-75
2023/04/25 11:14:29;;;;;;;;;;;12.20;99.90;;;;;;8402984;28;19931;-76
2023/04/25 11:18:32;;;;;;;;;;;12.20;99.90;;;;;;8410421;28;19983;-75
2023/04/25 11:22:34;;;;;;;;;;;12.70;99.90;;;;;;8393105;28;19931;-75
2023/04/25 11:26:37;;;;;;;;;;;13.40;99.90;;;;;;8385505;28;19998;-75
2023/04/25 11:30:39;;;;;;;;;;;13.80;99.90;;;;;;8392114;28;19928;-75
2023/04/25 11:34:45;;;;;;;;;;;13.70;99.90;;;;;;8395625;28;19932;-75
2023/04/25 11:38:46;;;;;;;;;;;13.20;99.90;;;;;;8388437;28;20287;-75
2023/04/25 11:42:48;;;;;;;;;;;13.50;99.90;;;;;;8374237;28;20421;-75
2023/04/25 11:46:50;;;;;;;;;;;14.30;99.90;;;;;;8372491;28;20391;-76
2023/04/25 11:50:51;;;;;;;;;;;14.70;99.90;;;;;;8376463;28;19925;-76
2023/04/25 11:54:53;;;;;;;;;;;15.10;99.90;;;;;;8366015;28;19969;-75
2023/04/25 11:58:55;;;;;;;;;;;15.40;99.90;;;;;;8366192;28;19924;-75
2023/04/25 12:02:58;;;;;;;;;;;15.30;99.90;;;;;;8368488;28;19934;-75
2023/04/25 12:07:01;;;;;;;;;;;15.30;99.90;;;;;;8370335;28;19925;-76
2023/04/25 12:11:03;;;;;;;;;;;15.50;99.90;;;;;;8369618;28;21069;-76
2023/04/25 12:15:11;;;;;;;;;;;15.60;99.90;;;;;;8364386;28;19924;-76
2023/04/25 12:19:16;;;;;;;;;;;15.20;99.90;;;;;;8398753;28;19944;-75
2023/04/25 12:23:24;;;;;;;;;;;14.90;99.90;;;;;;8365148;28;19928;-76
2023/04/25 12:27:27;;;;;;;;;;;14.80;99.90;;;;;;8356677;28;20019;-76
2023/04/25 12:31:29;;;;;;;;;;;14.60;99.90;;;;;;8364558;28;21421;-75
2023/04/25 12:35:31;;;;;;;;;;;14.40;99.90;;;;;;8366559;28;20075;-75
2023/04/25 12:39:33;;;;;;;;;;;14.10;99.90;;;;;;8358960;28;19967;-75
2023/04/25 12:43:35;;;;;;;;;;;14.10;99.90;;;;;;8368891;28;19928;-76
2023/04/25 12:47:37;;;;;;;;;;;13.80;99.90;;;;;;8371402;28;19976;-76
2023/04/25 12:51:38;;;;;;;;;;;13.60;99.90;;;;;;8363363;28;19929;-76
2023/04/25 12:55:40;;;;;;;;;;;13.50;99.90;;;;;;8363932;28;19935;-75
2023/04/25 12:59:42;;;;;;;;;;;13.40;99.90;;;;;;8366783;28;20676;-75
2023/04/25 13:03:43;;;;;;;;;;;13.70;99.90;;;;;;8374001;28;20352;-75
2023/04/25 13:07:45;;;;;;;;;;;14.30;99.90;;;;;;8365844;28;19975;-76
2023/04/25 13:11:47;;;;;;;;;;;14.90;99.90;;;;;;8369697;28;20015;-75
2023/04/25 13:15:49;;;;;;;;;;;15.10;99.90;;;;;;8360409;28;19932;-76
2023/04/25 13:19:50;;;;;;;;;;;14.70;99.90;;;;;;8372336;28;19933;-75
2023/04/25 13:23:52;;;;;;;;;;;14.20;99.90;;;;;;8367223;28;19928;-75
2023/04/25 13:27:54;;;;;;;;;;;13.60;99.90;;;;;;8364709;28;20411;-76
2023/04/25 13:31:56;;;;;;;;;;;13.20;99.90;;;;;;8374579;28;19971;-75
2023/04/25 13:35:58;;;;;;;;;;;13.10;99.90;;;;;;8375216;28;19964;-76
2023/04/25 13:40:00;;;;;;;;;;;13.30;99.90;;;;;;8376550;28;19932;-75
2023/04/25 13:44:02;;;;;;;;;;;13.70;99.90;;;;;;8375678;28;19925;-75
2023/04/25 13:48:03;;;;;;;;;;;13.90;99.90;;;;;;8361444;28;19968;-75
2023/04/25 13:52:05;;;;;;;;;;;14.20;96.20;;;;;;8365635;28;19929;-75
2023/04/25 13:56:07;;;;;;;;;;;15.20;99.90;;;;;;8375154;28;20012;-75
2023/04/25 14:00:09;;;;;;;;;;;16.20;99.10;;;;;;8374116;28;19932;-76
2023/04/25 14:04:11;;;;;;;;;;;16.90;99.90;;;;;;8378251;28;19932;-76
2023/04/25 14:08:13;;;;;;;;;;;17.50;99.90;;;;;;8377671;28;19929;-76
2023/04/25 14:12:16;;;;;;;;;;;17.90;99.90;;;;;;8377421;28;19924;-76
2023/04/25 14:16:18;;;;;;;;;;;18.40;99.90;;;;;;8374831;28;20471;-76
2023/04/25 14:20:23;;;;;;;;;;;18.80;97.40;;;;;;8366748;28;21284;-75
2023/04/25 14:24:25;;;;;;;;;;;19.00;99.90;;;;;;8369252;28;19925;-75
2023/04/25 14:28:27;;;;;;;;;;;19.10;98.00;;;;;;8371504;28;20038;-76
2023/04/25 14:32:29;;;;;;;;;;;19.10;97.90;;;;;;8371768;28;19932;-76
2023/04/25 14:36:31;;;;;;;;;;;19.00;99.90;;;;;;8375407;28;19947;-76
2023/04/25 14:40:33;;;;;;;;;;;18.40;96.10;;;;;;8370439;28;19929;-75
2023/04/25 14:44:34;;;;;;;;;;;17.10;97.80;;;;;;8375787;28;19964;-75
2023/04/25 14:48:36;;;;;;;;;;;15.90;99.90;;;;;;8379140;28;19953;-75
2023/04/25 14:52:38;;;;;;;;;;;15.10;99.90;;;;;;8371211;28;20343;-76
2023/04/25 14:56:40;;;;;;;;;;;14.50;99.50;;;;;;8376527;28;19935;-75
2023/04/25 15:00:42;;;;;;;;;;;14.40;99.90;;;;;;8367938;28;20376;-76
2023/04/25 15:04:43;;;;;;;;;;;14.50;96.40;;;;;;8375206;28;19968;-76
2023/04/25 15:08:45;;;;;;;;;;;15.00;97.10;;;;;;8367023;28;20019;-75
2023/04/25 15:27:58;;;;;;;;;;;18.30;90.00;;;;;;8363333;28;19920;-76
2023/04/25 15:31:59;;;;;;;;;;;18.40;99.20;;;;;;8372523;28;19924;-75
2023/04/25 15:36:03;;;;;;;;;;;18.80;99.90;;;;;;8359204;28;19929;-76
2023/04/25 15:40:08;;;;;;;;;;;19.00;91.60;;;;;;8354666;28;20295;-75
2023/04/25 15:44:10;;;;;;;;;;;18.00;97.30;;;;;;8362198;28;19972;-75
2023/04/25 15:48:12;;;;;;;;;;;17.40;97.20;;;;;;8362879;28;20307;-75
2023/04/25 16:02:20;;;;;;;;;;;18.60;90.00;;;;;;8358494;28;20397;-76
2023/04/25 16:06:22;;;;;;;;;;;18.80;99.90;;;;;;8364927;28;19933;-76
2023/04/25 16:10:24;;;;;;;;;;;19.60;99.90;;;;;;8361646;28;19979;-75
2023/04/25 16:14:26;;;;;;;;;;;19.20;95.90;;;;;;8370823;28;20288;-75
2023/04/25 16:18:28;;;;;;;;;;;18.20;95.10;;;;;;8357349;28;19972;-75
2023/04/25 16:22:30;;;;;;;;;;;17.20;99.30;;;;;;8361051;28;19928;-75
2023/04/25 16:26:32;;;;;;;;;;;16.50;97.40;;;;;;8362169;28;19939;-75
2023/04/25 16:30:33;;;;;;;;;;;17.00;99.00;;;;;;8360408;28;20372;-76
2023/04/25 16:34:35;;;;;;;;;;;17.70;94.00;;;;;;8402602;28;19972;-76
2023/04/25 16:38:38;;;;;;;;;;;17.40;92.50;;;;;;8367628;28;19979;-76
2023/04/25 16:42:40;;;;;;;;;;;16.70;96.20;;;;;;8359822;28;19924;-75
2023/04/25 16:46:41;;;;;;;;;;;16.10;95.00;;;;;;8366310;28;19929;-75
2023/04/25 16:50:43;;;;;;;;;;;16.30;93.10;;;;;;8365810;28;19967;-75
2023/04/25 16:54:45;;;;;;;;;;;16.20;94.30;;;;;;8363418;28;19934;-75
2023/04/25 16:58:46;;;;;;;;;;;15.90;99.10;;;;;;8362878;28;19930;-75
2023/04/25 17:13:08;;;;;;;;;;;14.70;95.60;;;;;;8361482;28;19939;-75
2023/04/25 17:17:10;;;;;;;;;;;14.20;94.30;;;;;;8365888;28;19929;-75
2023/04/25 17:41:19;;;;;;;;;;;12.60;93.90;;;;;;8364620;28;20410;-75
2023/04/25 17:45:21;;;;;;;;;;;12.60;94.30;;;;;;8382979;28;19936;-74
2023/04/25 17:49:23;;;;;;;;;;;12.80;95.20;;;;;;8362719;28;19935;-75
2023/04/25 17:53:24;;;;;;;;;;;13.30;96.30;;;;;;8382872;28;19936;-75
2023/04/25 17:57:26;;;;;;;;;;;13.50;96.30;;;;;;8365529;28;20295;-76
2023/04/25 18:01:28;;;;;;;;;;;13.50;94.80;;;;;;8367359;28;19939;-75
2023/04/25 18:05:31;;;;;;;;;;;13.30;93.90;;;;;;8368673;28;19936;-75
2023/04/25 18:09:33;;;;;;;;;;;13.10;94.20;;;;;;8363304;28;20388;-75
2023/04/25 18:13:36;;;;;;;;;;;12.80;95.80;;;;;;8366002;28;19990;-75
2023/04/25 18:17:40;;;;;;;;;;;12.40;93.30;;;;;;8363111;28;20330;-75
2023/04/25 18:21:42;;;;;;;;;;;12.10;92.70;;;;;;8376169;28;19924;-75
2023/04/25 18:25:45;;;;;;;;;;;11.90;94.10;;;;;;8374811;28;19929;-75
2023/04/25 18:29:47;;;;;;;;;;;11.70;92.70;;;;;;8363552;28;19936;-75
2023/04/25 18:33:48;;;;;;;;;;;11.40;93.30;;;;;;8369380;28;19931;-75
2023/04/25 18:37:50;;;;;;;;;;;11.20;92.90;;;;;;8369641;28;20403;-75
2023/04/25 18:41:54;;;;;;;;;;;11.10;92.70;;;;;;8372044;28;19995;-75
2023/04/25 18:46:01;;;;;;;;;;;10.90;93.20;;;;;;8383193;28;20419;-75
2023/04/25 18:50:05;;;;;;;;;;;10.80;93.40;;;;;;8372932;28;19971;-74
2023/04/25 18:54:09;;;;;;;;;;;10.70;93.30;;;;;;8369068;28;19949;-74
2023/04/25 18:58:11;;;;;;;;;;;10.60;93.50;;;;;;8357012;28;19928;-74
2023/04/25 19:02:14;;;;;;;;;;;10.50;93.70;;;;;;8363627;28;19929;-75
2023/04/25 19:06:16;;;;;;;;;;;10.50;93.80;;;;;;8361504;28;24251;-74
2023/04/25 19:10:18;;;;;;;;;;;10.40;93.70;;;;;;8382044;28;19971;-75
2023/04/25 19:14:19;;;;;;;;;;;10.30;93.70;;;;;;8367153;28;20015;-75
2023/04/25 19:18:21;;;;;;;;;;;10.20;93.50;;;;;;8362813;28;20019;-75
2023/04/25 19:22:23;;;;;;;;;;;10.10;93.80;;;;;;8366512;28;20031;-74
2023/04/25 19:26:28;;;;;;;;;;;10.00;93.90;;;;;;8372198;28;19938;-75
2023/04/25 19:30:30;;;;;;;;;;;9.90;94.50;;;;;;8360491;28;19951;-75
2023/04/25 19:34:32;;;;;;;;;;;9.80;94.60;;;;;;8366947;28;19936;-75
2023/04/25 19:38:34;;;;;;;;;;;9.70;94.90;;;;;;8362179;28;19924;-75
2023/04/25 19:42:35;;;;;;;;;;;9.70;94.90;;;;;;8368145;28;20426;-75
2023/04/25 19:46:37;;;;;;;;;;;9.60;95.00;;;;;;8362582;28;19932;-75
2023/04/25 19:50:39;;;;;;;;;;;9.60;95.00;;;;;;8361464;28;21053;-74
2023/04/25 19:54:41;;;;;;;;;;;9.50;95.00;;;;;;8366315;28;19931;-75
2023/04/25 19:58:43;;;;;;;;;;;9.40;95.10;;;;;;8362659;28;19937;-75
2023/04/25 20:02:44;;;;;;;;;;;9.30;95.10;;;;;;8363293;28;19968;-75
2023/04/25 20:06:46;;;;;;;;;;;9.30;95.20;;;;;;8361507;28;19939;-75
2023/04/25 20:10:48;;;;;;;;;;;9.20;95.30;;;;;;8358959;28;19924;-75
2023/04/25 20:14:50;;;;;;;;;;;9.20;94.80;;;;;;8356504;28;19925;-75
2023/04/25 20:28:59;;;;;;;;;;;8.90;95.20;;;;;;8360015;28;19927;-74
2023/04/25 20:33:01;;;;;;;;;;;8.80;95.10;;;;;;8355876;28;19925;-74
2023/04/25 20:37:02;;;;;;;;;;;8.80;95.20;;;;;;8356456;28;19971;-74
2023/04/25 20:41:04;;;;;;;;;;;8.70;96.00;;;;;;8378274;28;20303;-74
2023/04/25 20:45:06;;;;;;;;;;;8.60;95.60;;;;;;8365946;28;19932;-74
2023/04/25 20:49:08;;;;;;;;;;;8.50;95.70;;;;;;8376248;28;19925;-74
2023/04/25 20:53:10;;;;;;;;;;;8.50;95.70;;;;;;8362549;28;20388;-74
2023/04/25 20:57:12;;;;;;;;;;;8.40;95.70;;;;;;8340490;28;19937;-74
2023/04/25 21:01:14;;;;;;;;;;;8.40;95.50;;;;;;8361669;28;19967;-74
2023/04/25 21:05:15;;;;;;;;;;;8.40;95.60;;;;;;8392766;28;20462;-75
2023/04/25 21:09:17;;;;;;;;;;;8.40;95.20;;;;;;8398605;28;19924;-75
2023/04/25 21:13:19;;;;;;;;;;;8.40;95.80;;;;;;8389290;28;19935;-74
2023/04/25 21:17:21;;;;;;;;;;;8.30;96.10;;;;;;8388835;28;19983;-75
2023/04/25 21:21:23;;;;;;;;;;;8.20;95.90;;;;;;8391679;28;19985;-74
2023/04/25 21:25:29;;;;;;;;;;;8.10;95.70;;;;;;8398090;28;19928;-75
2023/04/25 21:29:31;;;;;;;;;;;8.00;95.40;;;;;;8382227;28;19926;-74
2023/04/25 21:33:33;;;;;;;;;;;7.90;95.20;;;;;;8364928;28;19929;-74
2023/04/25 21:37:35;;;;;;;;;;;7.70;95.90;;;;;;8390425;28;19928;-75
2023/04/25 21:41:36;;;;;;;;;;;7.50;96.80;;;;;;8375997;28;20307;-74
2023/04/25 21:45:38;;;;;;;;;;;7.30;95.90;;;;;;8392136;28;19964;-74
2023/04/25 21:49:57;;;;;;;;;;;7.20;95.60;;;;;;8392571;28;19932;-74
2023/04/25 21:54:03;;;;;;;;;;;7.10;96.80;;;;;;8379680;28;19971;-75
2023/04/25 21:58:06;;;;;;;;;;;6.90;95.90;;;;;;8396662;28;19936;-74
2023/04/25 22:02:10;;;;;;;;;;;6.80;95.80;;;;;;8402916;28;20031;-74
2023/04/25 22:06:12;;;;;;;;;;;6.80;95.70;;;;;;8391450;28;19967;-75
2023/04/25 22:10:14;;;;;;;;;;;6.60;96.60;;;;;;8401867;28;20383;-74
2023/04/25 22:14:15;;;;;;;;;;;6.50;95.90;;;;;;8401797;28;20802;-74
2023/04/25 22:18:18;;;;;;;;;;;6.40;96.50;;;;;;8400357;28;19924;-74
2023/04/25 22:22:20;;;;;;;;;;;6.30;96.60;;;;;;8404234;28;19924;-74
2023/04/25 22:26:22;;;;;;;;;;;6.30;97.40;;;;;;8393905;28;19930;-75
2023/04/25 22:30:24;;;;;;;;;;;6.20;96.60;;;;;;8379724;28;19939;-75
2023/04/25 22:34:25;;;;;;;;;;;6.20;96.10;;;;;;8398133;28;19929;-74
2023/04/25 22:38:28;;;;;;;;;;;6.10;95.80;;;;;;8402860;28;19931;-74
2023/04/25 22:42:35;;;;;;;;;;;6.00;95.60;;;;;;8392795;28;19972;-75
2023/04/25 22:46:37;;;;;;;;;;;5.90;95.40;;;;;;8408166;28;19960;-75
2023/04/25 22:50:39;;;;;;;;;;;5.90;95.30;;;;;;8387223;28;20020;-75
2023/04/25 22:54:41;;;;;;;;;;;5.80;95.60;;;;;;8396600;28;19924;-75
2023/04/25 22:58:43;;;;;;;;;;;5.70;95.60;;;;;;8387906;28;19931;-74
2023/04/25 23:02:44;;;;;;;;;;;5.70;95.60;;;;;;8394868;28;19924;-74
2023/04/25 23:06:47;;;;;;;;;;;5.50;95.40;;;;;;8396464;28;19931;-74
2023/04/25 23:10:49;;;;;;;;;;;5.50;95.40;;;;;;8401336;28;20344;-74
2023/04/25 23:14:51;;;;;;;;;;;5.40;95.40;;;;;;8394722;28;19944;-74
2023/04/25 23:18:53;;;;;;;;;;;5.40;95.40;;;;;;8396373;28;20011;-75
2023/04/25 23:22:55;;;;;;;;;;;5.30;95.20;;;;;;8404420;28;19931;-74
2023/04/25 23:26:56;;;;;;;;;;;5.30;95.80;;;;;;8377859;28;19972;-74
2023/04/25 23:31:04;;;;;;;;;;;5.20;95.10;;;;;;8392298;28;19935;-74
2023/04/25 23:35:07;;;;;;;;;;;5.10;95.20;;;;;;8407229;28;20015;-74
2023/04/25 23:39:09;;;;;;;;;;;5.10;95.00;;;;;;8405370;28;20295;-74
2023/04/25 23:43:11;;;;;;;;;;;5.00;94.70;;;;;;8394986;28;19931;-75
2023/04/25 23:47:16;;;;;;;;;;;5.00;94.80;;;;;;8392315;28;19980;-74
2023/04/25 23:51:18;;;;;;;;;;;4.90;94.80;;;;;;8395092;28;19924;-74
2023/04/25 23:55:20;;;;;;;;;;;4.80;94.90;;;;;;8393990;28;19928;-75
2023/04/25 23:59:21;;;;;;;;;;;4.80;94.70;;;;;;8388096;28;20032;-74
